Time;durP1;ratioP1;P1;durP2;ratioP2;P2;SDS_P1;SDS_P2;PMS_P1;PMS_P2;Temp;Humidity;BMP_temperature;BMP_pressure;BME280_temperature;BME280_humidity;BME280_pressure;Samples;Min_cycle;Max_cycle;Signal;HPM_P1;HPM_P2
2022/03/05 00:00:56;;;;;;;64.43;30.38;;;77.40;2227.20;;;;;;5133791;27;20031;-56
2022/03/05 00:03:22;;;;;;;63.78;31.15;;;77.30;2227.20;;;;;;5133982;27;20034;-53
2022/03/05 00:05:47;;;;;;;69.25;34.58;;;77.40;2227.20;;;;;;5132738;27;20453;-54
2022/03/05 00:08:13;;;;;;;77.07;37.63;;;77.40;2227.20;;;;;;5133668;27;20030;-54
2022/03/05 00:10:39;;;;;;;96.05;43.25;;;77.50;2227.20;;;;;;5132821;27;20117;-54
2022/03/05 00:13:05;;;;;;;132.57;55.78;;;77.40;2227.20;;;;;;5133703;27;20106;-53
2022/03/05 00:15:32;;;;;;;105.20;48.28;;;77.40;2227.20;;;;;;5133015;27;20023;-53
2022/03/05 00:17:58;;;;;;;84.90;42.90;;;77.40;2227.20;;;;;;5134594;27;20437;-54
2022/03/05 00:20:24;;;;;;;83.82;41.10;;;77.40;2227.20;;;;;;5134347;27;20054;-53
2022/03/05 00:22:52;;;;;;;84.40;40.80;;;77.40;2227.20;;;;;;5134113;27;20038;-52
2022/03/05 00:25:18;;;;;;;82.18;40.80;;;77.40;2227.20;;;;;;5134223;27;20023;-55
2022/03/05 00:27:45;;;;;;;82.20;41.03;;;77.40;2227.20;;;;;;5134091;27;20495;-56
2022/03/05 00:30:11;;;;;;;81.22;39.53;;;77.40;2227.20;;;;;;5134782;27;20019;-55
2022/03/05 00:32:37;;;;;;;81.47;39.22;;;77.40;2227.20;;;;;;5134566;27;20049;-56
2022/03/05 00:35:04;;;;;;;73.32;36.38;;;77.30;2227.20;;;;;;5133771;27;20114;-54
2022/03/05 00:37:30;;;;;;;73.05;35.67;;;77.40;2227.20;;;;;;5134403;27;20031;-53
2022/03/05 00:39:55;;;;;;;70.18;34.17;;;77.30;2227.20;;;;;;5134332;27;20543;-55
2022/03/05 00:42:21;;;;;;;68.88;34.17;;;77.40;2227.20;;;;;;5134235;27;20605;-54
2022/03/05 00:44:47;;;;;;;62.70;31.83;;;77.30;2227.20;;;;;;5134188;27;20023;-55
2022/03/05 00:47:13;;;;;;;71.55;34.92;;;77.40;2201.60;;;;;;5134101;27;20034;-56
2022/03/05 00:49:38;;;;;;;68.10;33.97;;;77.40;2201.60;;;;;;5133722;27;20528;-54
2022/03/05 00:52:04;;;;;;;64.78;32.88;;;77.40;2176.00;;;;;;5132825;27;20031;-55
2022/03/05 00:54:30;;;;;;;66.50;33.17;;;77.50;2150.40;;;;;;5129810;28;20037;-54
2022/03/05 00:56:56;;;;;;;69.72;32.60;;;77.40;2176.00;;;;;;5132853;28;20045;-54
2022/03/05 00:59:21;;;;;;;73.13;35.05;;;77.40;2176.00;;;;;;5131317;28;20039;-56
2022/03/05 01:01:47;;;;;;;71.03;33.80;;;77.50;2150.40;;;;;;5132276;28;20019;-54
2022/03/05 01:04:13;;;;;;;70.30;33.42;;;77.50;2150.40;;;;;;5132740;27;20068;-56
2022/03/05 01:06:38;;;;;;;62.63;32.67;;;77.50;2124.80;;;;;;5132320;28;20452;-54
2022/03/05 01:09:05;;;;;;;62.13;31.75;;;77.50;2124.80;;;;;;5132871;28;20027;-55
2022/03/05 01:11:31;;;;;;;61.03;31.45;;;77.50;2124.80;;;;;;5133294;28;20528;-57
2022/03/05 01:13:57;;;;;;;58.63;28.83;;;77.50;2124.80;;;;;;5133254;28;20050;-57
2022/03/05 01:16:23;;;;;;;58.80;28.55;;;77.50;2099.20;;;;;;5131945;27;20503;-55
2022/03/05 01:18:49;;;;;;;62.35;30.58;;;77.50;2099.20;;;;;;5132263;28;20036;-53
2022/03/05 01:21:15;;;;;;;61.85;31.10;;;77.50;2099.20;;;;;;5133074;27;20042;-55
2022/03/05 01:23:40;;;;;;;58.55;28.63;;;77.60;2099.20;;;;;;5133082;28;20449;-54
2022/03/05 01:26:06;;;;;;;59.67;27.27;;;77.50;2099.20;;;;;;5132583;28;20110;-54
2022/03/05 01:28:32;;;;;;;54.83;27.08;;;77.50;2073.60;;;;;;5132717;28;20376;-55
2022/03/05 01:30:59;;;;;;;51.30;25.15;;;77.40;2073.60;;;;;;5132884;27;20035;-57
2022/03/05 01:33:25;;;;;;;52.58;25.98;;;77.40;2048.00;;;;;;5132624;27;20065;-55
2022/03/05 01:35:50;;;;;;;50.03;25.30;;;77.50;2073.60;;;;;;5132422;28;20030;-58
2022/03/05 01:38:17;;;;;;;54.85;25.52;;;77.50;2048.00;;;;;;5133426;27;20429;-56
2022/03/05 01:40:44;;;;;;;48.90;25.27;;;77.50;2022.40;;;;;;5136653;27;20045;-58
2022/03/05 01:43:10;;;;;;;50.15;25.23;;;77.60;1971.20;;;;;;5136326;27;20786;-55
2022/03/05 01:45:36;;;;;;;53.65;27.77;;;77.60;1996.80;;;;;;5135405;27;20023;-57
2022/03/05 01:48:02;;;;;;;52.90;27.15;;;77.50;2022.40;;;;;;5136516;27;20019;-54
2022/03/05 01:50:29;;;;;;;75.32;31.45;;;77.50;2073.60;;;;;;5136483;27;20102;-56
2022/03/05 01:52:55;;;;;;;69.85;30.80;;;77.40;2073.60;;;;;;5136441;27;20019;-55
2022/03/05 01:55:20;;;;;;;66.75;29.73;;;77.30;2048.00;;;;;;5136354;27;20032;-55
2022/03/05 01:57:46;;;;;;;54.95;26.42;;;77.50;2022.40;;;;;;5136218;27;20415;-57
2022/03/05 02:00:14;;;;;;;56.72;27.35;;;77.50;2022.40;;;;;;5136254;27;20035;-56
2022/03/05 02:02:41;;;;;;;57.83;27.60;;;77.40;2048.00;;;;;;5136452;27;20121;-54
2022/03/05 02:05:07;;;;;;;53.63;26.05;;;77.50;2048.00;;;;;;5134448;27;20440;-54
2022/03/05 02:07:33;;;;;;;55.83;26.83;;;77.50;2048.00;;;;;;5135982;27;20034;-55
2022/03/05 02:09:59;;;;;;;56.47;27.60;;;77.50;2073.60;;;;;;5135673;27;20511;-55
2022/03/05 02:12:28;;;;;;;65.18;29.52;;;77.50;2073.60;;;;;;5136024;27;20023;-55
2022/03/05 02:14:54;;;;;;;59.57;29.37;;;77.40;2099.20;;;;;;5136079;27;20207;-54
2022/03/05 02:17:19;;;;;;;63.57;29.53;;;77.40;2124.80;;;;;;5135822;27;20102;-55
2022/03/05 02:19:45;;;;;;;64.97;30.80;;;77.30;2150.40;;;;;;5135685;27;20064;-54
2022/03/05 02:22:11;;;;;;;68.13;31.75;;;77.20;2124.80;;;;;;5135783;27;20022;-56
2022/03/05 02:24:39;;;;;;;67.72;31.92;;;77.20;2150.40;;;;;;5134484;27;20092;-55
2022/03/05 02:27:05;;;;;;;69.47;31.80;;;77.30;2150.40;;;;;;5132690;27;20469;-56
2022/03/05 02:29:33;;;;;;;69.95;32.85;;;77.20;2176.00;;;;;;5135711;27;20460;-55
2022/03/05 02:31:58;;;;;;;67.00;32.75;;;77.30;2176.00;;;;;;5135668;27;20016;-55
2022/03/05 02:34:24;;;;;;;67.53;31.42;;;77.30;2176.00;;;;;;5132819;27;20030;-55
2022/03/05 02:36:51;;;;;;;69.22;32.60;;;77.30;2150.40;;;;;;5135233;27;20023;-57
2022/03/05 02:39:17;;;;;;;64.13;30.52;;;77.30;2176.00;;;;;;5134909;27;20103;-56
2022/03/05 02:41:43;;;;;;;64.72;29.95;;;77.10;2227.20;;;;;;5135428;27;20019;-54
2022/03/05 02:44:10;;;;;;;58.75;29.23;;;76.90;2227.20;;;;;;5135202;27;20481;-54
2022/03/05 02:46:36;;;;;;;59.60;28.40;;;76.80;2227.20;;;;;;5135429;27;20051;-54
2022/03/05 02:49:03;;;;;;;55.88;27.20;;;52.00;2227.20;;;;;;5135272;27;20098;-55
2022/03/05 02:51:30;;;;;;;57.78;29.48;;;52.00;2227.20;;;;;;5134716;27;20015;-57
2022/03/05 02:53:55;;;;;;;56.08;27.95;;;52.10;2227.20;;;;;;5135385;27;20027;-54
2022/03/05 02:56:21;;;;;;;57.42;28.20;;;52.10;2227.20;;;;;;5135288;27;20529;-55
2022/03/05 02:58:47;;;;;;;62.60;30.02;;;52.10;2227.20;;;;;;5134968;27;20023;-55
2022/03/05 03:01:13;;;;;;;68.28;31.48;;;52.10;2227.20;;;;;;5135158;27;20050;-54
2022/03/05 03:03:39;;;;;;;67.20;31.90;;;52.10;2227.20;;;;;;5134814;27;20031;-55
2022/03/05 03:06:06;;;;;;;65.78;31.52;;;76.80;2227.20;;;;;;5132491;27;20022;-55
2022/03/05 03:08:32;;;;;;;69.05;31.92;;;76.90;2227.20;;;;;;5135011;27;20362;-55
2022/03/05 03:10:58;;;;;;;66.53;32.42;;;76.90;2227.20;;;;;;5134849;27;20030;-57
2022/03/05 03:13:24;;;;;;;62.45;29.52;;;76.90;2227.20;;;;;;5132072;27;20022;-55
2022/03/05 03:15:50;;;;;;;63.53;29.45;;;76.80;2227.20;;;;;;5135039;27;20049;-54
2022/03/05 03:18:19;;;;;;;65.75;30.70;;;76.80;2227.20;;;;;;5134154;27;20909;-57
2022/03/05 03:20:45;;;;;;;55.65;27.50;;;52.10;2227.20;;;;;;5131992;27;20033;-56
2022/03/05 03:23:11;;;;;;;57.60;27.92;;;76.80;2227.20;;;;;;5134646;27;20098;-55
2022/03/05 03:25:39;;;;;;;63.15;30.17;;;76.90;2201.60;;;;;;5134586;27;20030;-55
2022/03/05 03:28:08;;;;;;;56.83;26.75;;;76.90;2227.20;;;;;;5131876;27;20012;-58
2022/03/05 03:30:35;;;;;;;71.07;31.33;;;77.00;2201.60;;;;;;5134409;27;20044;-57
2022/03/05 03:33:01;;;;;;;94.35;37.15;;;77.00;2201.60;;;;;;5134724;27;20019;-57
2022/03/05 03:35:27;;;;;;;62.13;28.10;;;77.00;2201.60;;;;;;5134791;27;20023;-57
2022/03/05 03:37:53;;;;;;;73.35;31.05;;;77.00;2227.20;;;;;;5133074;27;20023;-58
2022/03/05 03:40:20;;;;;;;99.38;37.63;;;77.00;2176.00;;;;;;5134592;27;20083;-59
2022/03/05 03:42:48;;;;;;;71.57;31.17;;;77.10;2176.00;;;;;;5134438;27;20438;-56
2022/03/05 03:45:14;;;;;;;68.70;32.65;;;77.10;2176.00;;;;;;5134178;27;20027;-58
2022/03/05 03:47:43;;;;;;;74.15;32.97;;;77.10;2227.20;;;;;;5133617;27;20517;-57
2022/03/05 03:50:12;;;;;;;115.78;44.28;;;77.10;2227.20;;;;;;5134121;27;20031;-58
2022/03/05 03:52:38;;;;;;;104.38;44.22;;;77.10;2227.20;;;;;;5133480;27;20037;-58
2022/03/05 03:55:07;;;;;;;89.25;40.40;;;77.10;2227.20;;;;;;5133994;27;20035;-58
2022/03/05 03:57:33;;;;;;;63.80;30.10;;;77.10;2227.20;;;;;;5133837;27;20042;-57
2022/03/05 03:59:58;;;;;;;84.43;41.60;;;77.00;2227.20;;;;;;5134239;27;20081;-55
2022/03/05 04:02:24;;;;;;;74.15;34.38;;;77.10;2201.60;;;;;;5133466;27;20047;-55
2022/03/05 04:04:50;;;;;;;59.13;27.45;;;77.10;2201.60;;;;;;5134860;27;20023;-58
2022/03/05 04:10:02;;;;;;;64.38;28.55;;;77.10;2150.40;;;;;;5126943;27;20035;-56
2022/03/05 04:12:27;;;;;;;55.53;25.73;;;77.20;2150.40;;;;;;5114826;28;20031;-57
2022/03/05 04:14:54;;;;;;;56.90;27.38;;;77.10;2176.00;;;;;;5114361;28;20354;-55
2022/03/05 04:17:22;;;;;;;53.13;25.35;;;77.20;2176.00;;;;;;5113826;28;20090;-58
2022/03/05 04:19:47;;;;;;;46.75;23.85;;;77.20;2176.00;;;;;;5113740;28;20148;-55
2022/03/05 04:22:13;;;;;;;50.30;25.58;;;77.10;2150.40;;;;;;5113518;28;20513;-56
2022/03/05 04:24:39;;;;;;;52.15;25.70;;;77.20;2124.80;;;;;;5113658;28;20027;-59
2022/03/05 04:27:05;;;;;;;59.05;26.63;;;77.30;2150.40;;;;;;5113128;27;20023;-58
2022/03/05 04:29:31;;;;;;;60.25;27.67;;;77.20;2176.00;;;;;;5113409;28;20080;-58
2022/03/05 04:31:57;;;;;;;52.03;25.83;;;77.30;2176.00;;;;;;5113316;28;20024;-56
2022/03/05 04:34:22;;;;;;;65.47;29.75;;;77.30;2150.40;;;;;;5113526;28;20480;-58
2022/03/05 04:36:48;;;;;;;58.00;27.83;;;77.30;2124.80;;;;;;5113353;28;20030;-55
2022/03/05 04:39:14;;;;;;;54.70;26.23;;;77.30;2124.80;;;;;;5113147;28;20035;-56
2022/03/05 04:41:40;;;;;;;57.60;28.15;;;77.30;2176.00;;;;;;5113315;28;20024;-58
2022/03/05 04:44:06;;;;;;;59.38;27.83;;;77.30;2227.20;;;;;;5125234;27;20046;-55
2022/03/05 04:46:32;;;;;;;55.05;27.65;;;77.30;2227.20;;;;;;5133877;27;20065;-54
2022/03/05 04:48:57;;;;;;;57.08;27.48;;;77.30;2227.20;;;;;;5133623;27;20031;-55
2022/03/05 04:51:23;;;;;;;55.28;26.88;;;77.30;2227.20;;;;;;5133933;27;20038;-55
2022/03/05 04:53:49;;;;;;;60.53;28.08;;;77.30;2227.20;;;;;;5134118;27;20384;-55
2022/03/05 04:56:15;;;;;;;59.08;27.58;;;77.30;2201.60;;;;;;5133686;28;20031;-54
2022/03/05 04:58:41;;;;;;;54.22;26.15;;;77.30;2227.20;;;;;;5133648;28;20036;-55
2022/03/05 05:01:07;;;;;;;57.83;27.13;;;77.40;2201.60;;;;;;5132780;27;20039;-54
2022/03/05 05:03:33;;;;;;;56.00;26.65;;;77.30;2201.60;;;;;;5133681;27;20050;-55
2022/03/05 05:06:00;;;;;;;59.30;28.23;;;77.30;2201.60;;;;;;5133761;27;20031;-56
2022/03/05 05:08:25;;;;;;;72.10;33.42;;;77.30;2201.60;;;;;;5133912;28;20031;-57
2022/03/05 05:10:51;;;;;;;78.85;35.20;;;77.30;2201.60;;;;;;5133919;28;20534;-54
2022/03/05 05:13:17;;;;;;;95.38;40.38;;;77.20;2176.00;;;;;;5134745;27;20023;-57
2022/03/05 05:15:45;;;;;;;110.55;48.00;;;77.20;2176.00;;;;;;5128078;27;20038;-59
2022/03/05 05:18:11;;;;;;;99.47;45.90;;;77.20;2201.60;;;;;;5117402;28;20423;-58
2022/03/05 05:20:37;;;;;;;97.57;45.53;;;77.10;2176.00;;;;;;5117859;28;20042;-55
2022/03/05 05:23:03;;;;;;;92.95;44.40;;;77.10;2201.60;;;;;;5117833;28;20023;-57
2022/03/05 05:25:28;;;;;;;80.55;39.67;;;77.10;2201.60;;;;;;5117804;28;20081;-57
2022/03/05 05:27:54;;;;;;;103.40;44.45;;;77.10;2201.60;;;;;;5117879;27;20415;-56
2022/03/05 05:30:20;;;;;;;129.07;48.33;;;77.20;2176.00;;;;;;5117743;28;20024;-55
2022/03/05 05:32:45;;;;;;;137.88;51.33;;;77.10;2176.00;;;;;;5131929;27;20019;-55
2022/03/05 05:35:11;;;;;;;214.65;78.38;;;77.10;2176.00;;;;;;5137510;27;20483;-56
2022/03/05 05:37:37;;;;;;;199.75;70.25;;;77.10;2176.00;;;;;;5136989;27;20063;-59
2022/03/05 05:40:03;;;;;;;182.32;67.45;;;77.10;2201.60;;;;;;5136584;27;20574;-56
2022/03/05 05:42:29;;;;;;;151.70;57.28;;;77.30;2176.00;;;;;;5137745;27;20039;-57
2022/03/05 05:44:54;;;;;;;113.82;44.83;;;77.20;2176.00;;;;;;5137394;27;20387;-57
2022/03/05 05:47:20;;;;;;;94.32;40.20;;;77.20;2176.00;;;;;;5136859;27;20020;-57
2022/03/05 05:49:46;;;;;;;74.72;35.28;;;77.10;2201.60;;;;;;5135621;27;20808;-56
2022/03/05 05:52:12;;;;;;;67.57;31.90;;;77.10;2176.00;;;;;;5137757;27;20026;-57
2022/03/05 05:54:37;;;;;;;66.75;31.55;;;77.10;2176.00;;;;;;5136696;27;20027;-56
2022/03/05 05:57:04;;;;;;;68.45;32.03;;;77.20;2150.40;;;;;;5136938;27;20110;-55
2022/03/05 05:59:30;;;;;;;63.90;31.55;;;77.20;2150.40;;;;;;5133630;27;20035;-58
2022/03/05 06:01:56;;;;;;;63.88;32.90;;;77.30;2150.40;;;;;;5136851;27;20015;-55
2022/03/05 06:04:21;;;;;;;81.30;35.08;;;77.40;2150.40;;;;;;5136706;27;20446;-58
2022/03/05 06:06:48;;;;;;;92.47;39.97;;;77.60;2099.20;;;;;;5129938;27;20028;-57
2022/03/05 06:09:14;;;;;;;94.10;39.92;;;77.60;2099.20;;;;;;5116820;28;20032;-58
2022/03/05 06:11:39;;;;;;;83.55;38.33;;;77.70;2073.60;;;;;;5117160;28;20111;-56
2022/03/05 06:14:06;;;;;;;91.13;41.83;;;102.50;2048.00;;;;;;5116615;28;20027;-55
2022/03/05 06:16:32;;;;;;;238.25;82.50;;;102.60;2022.40;;;;;;5117049;28;20034;-58
2022/03/05 06:18:58;;;;;;;275.65;105.97;;;102.70;1996.80;;;;;;5116349;27;20504;-56
2022/03/05 06:21:23;;;;;;;297.20;115.45;;;102.80;1971.20;;;;;;5116794;28;20027;-56
2022/03/05 06:23:49;;;;;;;224.10;89.00;;;102.90;1971.20;;;;;;5126011;27;20023;-54
2022/03/05 06:26:15;;;;;;;358.00;125.13;;;102.90;1971.20;;;;;;5135693;27;20084;-54
2022/03/05 06:28:41;;;;;;;279.00;102.15;;;103.10;1971.20;;;;;;5136984;27;20019;-55
2022/03/05 06:31:07;;;;;;;233.60;89.23;;;103.30;1920.00;;;;;;5136557;27;20025;-54
2022/03/05 06:33:33;;;;;;;239.85;91.97;;;128.60;1894.40;;;;;;5137081;27;20098;-55
2022/03/05 06:35:58;;;;;;;227.07;90.38;;;154.00;1792.00;;;;;;5137084;27;20054;-56
2022/03/05 06:38:24;;;;;;;172.02;71.07;;;179.70;1664.00;;;;;;5134776;27;20318;-55
2022/03/05 06:40:50;;;;;;;136.73;56.40;;;205.50;1536.00;;;;;;5135807;27;20031;-55
2022/03/05 06:43:16;;;;;;;97.70;42.72;;;231.10;1408.00;;;;;;5135419;27;20040;-56
2022/03/05 06:45:43;;;;;;;118.18;52.03;;;281.70;1331.20;;;;;;5135746;27;20050;-55
2022/03/05 06:48:09;;;;;;;52.65;28.45;;;307.60;1228.80;;;;;;5135531;27;20019;-57
2022/03/05 06:50:35;;;;;;;52.88;28.75;;;333.10;1203.20;;;;;;5135376;27;20071;-58
2022/03/05 06:53:01;;;;;;;84.47;39.88;;;358.40;1126.40;;;;;;5135133;27;20033;-58
2022/03/05 06:55:26;;;;;;;69.40;35.75;;;359.10;1075.20;;;;;;5134084;27;20031;-58
2022/03/05 06:57:52;;;;;;;52.95;30.33;;;384.50;1049.60;;;;;;5135153;27;20022;-57
2022/03/05 07:00:20;;;;;;;32.97;21.88;;;409.70;998.40;;;;;;5135110;27;20066;-60
2022/03/05 07:02:46;;;;;;;31.73;21.23;;;410.30;972.80;;;;;;5135051;27;20110;-62
2022/03/05 07:05:13;;;;;;;31.90;21.98;;;435.20;947.20;;;;;;5134986;27;20107;-58
2022/03/05 07:07:39;;;;;;;52.20;30.98;;;435.90;896.00;;;;;;5135223;27;20037;-58
2022/03/05 07:10:05;;;;;;;28.67;19.88;;;435.90;896.00;;;;;;5134257;27;20102;-58
2022/03/05 07:12:31;;;;;;;27.42;19.05;;;461.10;870.40;;;;;;5135219;27;20072;-58
2022/03/05 07:14:58;;;;;;;27.67;19.38;;;461.70;819.20;;;;;;5135073;27;20023;-59
2022/03/05 07:17:24;;;;;;;27.45;18.38;;;461.70;819.20;;;;;;5132331;27;20019;-60
2022/03/05 07:19:51;;;;;;;23.65;17.55;;;486.70;768.00;;;;;;5134766;27;20027;-58
2022/03/05 07:22:16;;;;;;;24.75;17.88;;;486.90;793.60;;;;;;5134924;27;20047;-58
2022/03/05 07:24:42;;;;;;;43.22;29.38;;;512.30;716.80;;;;;;5134316;27;20046;-60
2022/03/05 07:27:08;;;;;;;30.23;21.85;;;487.20;742.40;;;;;;5133311;27;20353;-58
2022/03/05 07:29:34;;;;;;;23.35;17.48;;;486.40;793.60;;;;;;5133537;27;20098;-58
2022/03/05 07:32:00;;;;;;;31.23;21.50;;;461.30;819.20;;;;;;5134761;27;20015;-59
2022/03/05 07:34:26;;;;;;;29.98;20.10;;;436.10;844.80;;;;;;5134626;27;20481;-59
2022/03/05 07:36:52;;;;;;;54.25;34.53;;;435.80;844.80;;;;;;5133951;27;20055;-60
2022/03/05 07:39:17;;;;;;;28.70;19.42;;;460.80;870.40;;;;;;5134688;27;20126;-58
2022/03/05 07:41:43;;;;;;;30.33;20.30;;;461.60;819.20;;;;;;5134412;27;20527;-61
2022/03/05 07:44:09;;;;;;;23.83;18.00;;;486.50;793.60;;;;;;5131448;27;20043;-59
2022/03/05 07:46:38;;;;;;;27.08;19.30;;;487.00;768.00;;;;;;5134215;27;20018;-59
2022/03/05 07:49:05;;;;;;;24.95;17.08;;;512.10;742.40;;;;;;5131455;27;20026;-60
2022/03/05 07:51:31;;;;;;;28.90;18.58;;;512.40;716.80;;;;;;5134507;27;20015;-58
2022/03/05 07:53:59;;;;;;;25.58;18.27;;;537.90;691.20;;;;;;5134254;27;20238;-61
2022/03/05 07:56:24;;;;;;;22.67;17.52;;;563.80;716.80;;;;;;5134282;27;20022;-62
2022/03/05 07:58:50;;;;;;;30.65;23.15;;;588.80;665.60;;;;;;5134148;27;20502;-61
2022/03/05 08:01:16;;;;;;;22.08;16.92;;;589.50;640.00;;;;;;5130918;27;20130;-60
2022/03/05 08:03:42;;;;;;;25.55;18.80;;;614.40;614.40;;;;;;5134076;27;20042;-61
2022/03/05 08:06:07;;;;;;;21.52;18.73;;;614.70;614.40;;;;;;5133920;27;20026;-58
2022/03/05 08:08:33;;;;;;;21.80;17.38;;;640.30;588.80;;;;;;5133815;27;20020;-59
2022/03/05 08:10:59;;;;;;;38.95;29.35;;;640.30;588.80;;;;;;5133837;27;20027;-59
2022/03/05 08:13:27;;;;;;;28.17;23.60;;;665.70;563.20;;;;;;5132396;27;20035;-59
2022/03/05 08:15:53;;;;;;;20.50;16.35;;;691.20;537.60;;;;;;5134099;27;20090;-59
2022/03/05 08:18:20;;;;;;;21.15;18.40;;;691.20;512.00;;;;;;5131334;27;20153;-59
2022/03/05 08:20:46;;;;;;;21.90;18.55;;;691.80;486.40;;;;;;5133649;27;20164;-58
2022/03/05 08:23:12;;;;;;;20.02;16.27;;;691.70;486.40;;;;;;5133801;27;20454;-58
2022/03/05 08:25:38;;;;;;;22.83;19.25;;;692.00;460.80;;;;;;5133346;27;20023;-57
2022/03/05 08:28:04;;;;;;;22.80;17.52;;;717.20;486.40;;;;;;5133450;27;20042;-56
2022/03/05 08:30:29;;;;;;;19.73;15.38;;;716.80;486.40;;;;;;5133588;27;20057;-57
2022/03/05 08:32:55;;;;;;;18.65;15.60;;;716.80;486.40;;;;;;5133370;27;20476;-57
2022/03/05 08:35:21;;;;;;;20.77;17.27;;;742.40;460.80;;;;;;5132981;27;20470;-57
2022/03/05 08:37:49;;;;;;;20.10;16.77;;;742.40;460.80;;;;;;5133503;27;20016;-57
2022/03/05 08:40:15;;;;;;;18.30;15.93;;;742.50;460.80;;;;;;5133398;27;20126;-57
2022/03/05 08:42:43;;;;;;;19.30;16.15;;;742.70;435.20;;;;;;5133831;27;20039;-57
2022/03/05 08:45:09;;;;;;;20.42;16.77;;;742.60;460.80;;;;;;5134317;27;20473;-56
2022/03/05 08:47:35;;;;;;;20.08;16.15;;;742.80;460.80;;;;;;5134558;27;20019;-58
2022/03/05 08:50:02;;;;;;;16.42;14.65;;;743.20;435.20;;;;;;5134421;27;20023;-57
2022/03/05 08:52:32;;;;;;;19.85;17.27;;;743.20;435.20;;;;;;5132232;27;20512;-58
2022/03/05 08:54:57;;;;;;;18.38;15.68;;;743.20;435.20;;;;;;5134425;27;20035;-57
2022/03/05 08:57:23;;;;;;;17.55;15.23;;;742.70;435.20;;;;;;5134637;28;20088;-56
2022/03/05 08:59:49;;;;;;;17.02;14.73;;;743.00;435.20;;;;;;5134547;28;20027;-57
2022/03/05 09:02:15;;;;;;;16.20;14.10;;;768.80;409.60;;;;;;5133682;27;20114;-58
2022/03/05 09:04:40;;;;;;;49.85;25.88;;;768.50;409.60;;;;;;5133778;28;20047;-57
2022/03/05 09:07:06;;;;;;;202.63;66.57;;;768.10;409.60;;;;;;5130573;28;20042;-57
2022/03/05 09:09:32;;;;;;;76.20;39.42;;;717.10;435.20;;;;;;5133550;27;20019;-57
2022/03/05 09:11:58;;;;;;;157.60;78.78;;;717.70;460.80;;;;;;5134294;27;20023;-57
2022/03/05 09:14:23;;;;;;;62.00;36.22;;;768.00;435.20;;;;;;5134691;28;20418;-58
2022/03/05 09:16:49;;;;;;;51.80;33.65;;;768.80;409.60;;;;;;5134362;28;20027;-58
2022/03/05 09:19:15;;;;;;;144.20;80.18;;;768.40;409.60;;;;;;5134518;27;20047;-59
2022/03/05 09:21:41;;;;;;;53.33;34.45;;;794.10;409.60;;;;;;5134043;28;20431;-60
2022/03/05 09:24:07;;;;;;;46.17;28.88;;;768.70;409.60;;;;;;5131387;27;20019;-59
2022/03/05 09:26:33;;;;;;;21.08;17.13;;;793.60;409.60;;;;;;5132836;28;20019;-59
2022/03/05 09:28:59;;;;;;;18.10;15.80;;;743.00;435.20;;;;;;5134634;27;20495;-60
2022/03/05 09:31:25;;;;;;;16.10;14.15;;;743.10;435.20;;;;;;5134712;28;20106;-60
2022/03/05 09:33:51;;;;;;;16.27;14.60;;;768.10;409.60;;;;;;5134259;28;20019;-60
2022/03/05 09:36:17;;;;;;;16.05;14.35;;;768.80;409.60;;;;;;5134424;27;20034;-58
2022/03/05 09:38:43;;;;;;;17.60;15.52;;;793.80;409.60;;;;;;5133706;28;20016;-58
2022/03/05 09:41:09;;;;;;;19.42;17.33;;;794.40;409.60;;;;;;5116269;28;20066;-58
2022/03/05 09:43:35;;;;;;;16.95;15.15;;;819.70;384.00;;;;;;5116764;28;20128;-58
2022/03/05 09:46:02;;;;;;;15.50;13.70;;;768.60;384.00;;;;;;5134360;28;20479;-58
2022/03/05 09:48:29;;;;;;;15.40;13.40;;;768.60;409.60;;;;;;5131752;28;20050;-58
2022/03/05 09:50:56;;;;;;;14.88;12.98;;;742.90;435.20;;;;;;5130838;28;20164;-58
2022/03/05 09:53:26;;;;;;;18.27;14.68;;;717.30;435.20;;;;;;5130682;28;20019;-57
2022/03/05 09:55:51;;;;;;;18.45;14.30;;;717.10;435.20;;;;;;5130234;27;21015;-57
2022/03/05 09:58:17;;;;;;;18.00;13.93;;;742.70;435.20;;;;;;5128031;28;20020;-58
2022/03/05 10:00:44;;;;;;;23.88;16.70;;;692.00;435.20;;;;;;5133762;27;20038;-58
2022/03/05 10:03:13;;;;;;;21.05;15.23;;;691.70;460.80;;;;;;5134388;27;20019;-58
2022/03/05 10:05:39;;;;;;;20.33;15.40;;;615.10;537.60;;;;;;5134441;27;20027;-58
2022/03/05 10:08:08;;;;;;;23.83;16.92;;;564.00;614.40;;;;;;5127409;27;20023;-57
2022/03/05 10:11:05;;;;;;;25.60;16.98;;;563.90;640.00;;;;;;5133989;27;20031;-58
2022/03/05 10:13:33;;;;;;;28.45;18.92;;;537.80;665.60;;;;;;5125678;27;20031;-58
2022/03/05 10:16:01;;;;;;;26.88;20.05;;;537.70;665.60;;;;;;5134735;27;20050;-57
2022/03/05 10:18:32;;;;;;;19.50;15.40;;;589.60;588.80;;;;;;5135140;27;20023;-60
2022/03/05 10:21:02;;;;;;;20.40;14.50;;;564.10;614.40;;;;;;5129280;27;20027;-58
2022/03/05 10:23:32;;;;;;;18.48;14.27;;;538.20;665.60;;;;;;5133824;27;20035;-58
2022/03/05 10:25:57;;;;;;;28.98;19.63;;;487.30;691.20;;;;;;5135855;27;20023;-57
2022/03/05 10:28:30;;;;;;;27.20;20.48;;;486.60;691.20;;;;;;5130256;27;20315;-60
2022/03/05 10:31:08;;;;;;;31.85;23.95;;;486.60;716.80;;;;;;5134600;27;20043;-57
2022/03/05 10:33:42;;;;;;;20.88;15.15;;;487.20;665.60;;;;;;5133292;27;20034;-57
2022/03/05 10:36:22;;;;;;;18.38;15.10;;;564.00;640.00;;;;;;5136020;27;20015;-57
2022/03/05 10:38:58;;;;;;;17.50;13.95;;;615.30;537.60;;;;;;5131469;27;20020;-58
2022/03/05 10:41:33;;;;;;;17.33;14.80;;;615.00;537.60;;;;;;5133533;27;20031;-59
2022/03/05 10:44:18;;;;;;;18.58;15.02;;;589.50;588.80;;;;;;5128834;27;20043;-58
2022/03/05 10:46:46;;;;;;;19.00;14.85;;;563.90;640.00;;;;;;5134205;27;20061;-58
2022/03/05 10:49:24;;;;;;;20.20;15.35;;;538.20;640.00;;;;;;5132058;27;20372;-57
2022/03/05 10:51:52;;;;;;;26.73;18.98;;;512.40;665.60;;;;;;5134586;27;20110;-58
2022/03/05 10:54:29;;;;;;;39.13;24.65;;;486.70;691.20;;;;;;5136365;27;20030;-58
2022/03/05 10:57:15;;;;;;;58.53;32.78;;;461.50;716.80;;;;;;5135700;27;20064;-57
2022/03/05 10:59:46;;;;;;;52.53;28.10;;;436.00;768.00;;;;;;5131324;27;20042;-60
2022/03/05 11:02:15;;;;;;;42.15;24.23;;;410.50;819.20;;;;;;5127420;27;20473;-58
2022/03/05 11:04:42;;;;;;;53.95;30.00;;;409.60;844.80;;;;;;5127035;27;20027;-58
2022/03/05 11:07:09;;;;;;;39.65;23.98;;;384.20;870.40;;;;;;5121431;27;20481;-58
2022/03/05 11:09:36;;;;;;;45.55;24.60;;;359.10;896.00;;;;;;5131436;27;20031;-58
2022/03/05 11:12:03;;;;;;;29.42;19.08;;;359.00;896.00;;;;;;5131173;27;20091;-58
2022/03/05 11:14:29;;;;;;;28.70;19.25;;;358.40;947.20;;;;;;5125042;27;20031;-57
2022/03/05 11:16:56;;;;;;;27.33;17.10;;;333.60;972.80;;;;;;5123847;27;20046;-58
2022/03/05 11:19:26;;;;;;;26.67;17.65;;;333.20;998.40;;;;;;5128195;27;20027;-58
2022/03/05 11:21:52;;;;;;;24.90;16.35;;;333.00;998.40;;;;;;5132890;27;20024;-57
2022/03/05 11:24:20;;;;;;;31.90;20.42;;;332.80;998.40;;;;;;5135116;27;20358;-57
2022/03/05 11:26:55;;;;;;;27.75;17.83;;;333.00;998.40;;;;;;5135094;27;20029;-58
2022/03/05 11:29:26;;;;;;;28.63;17.52;;;333.00;998.40;;;;;;5134766;27;20023;-59
2022/03/05 11:31:53;;;;;;;27.10;17.40;;;308.10;998.40;;;;;;5134670;27;20031;-57
2022/03/05 11:34:22;;;;;;;29.45;17.38;;;332.80;998.40;;;;;;5135664;27;20076;-58
2022/03/05 11:36:50;;;;;;;27.77;17.52;;;332.90;972.80;;;;;;5135376;27;20035;-58
2022/03/05 11:39:21;;;;;;;39.35;21.48;;;333.00;998.40;;;;;;5135287;27;20503;-57
2022/03/05 11:42:02;;;;;;;33.35;19.50;;;333.10;972.80;;;;;;5135244;27;20059;-58
2022/03/05 11:44:45;;;;;;;31.42;19.92;;;333.30;972.80;;;;;;5135467;27;20438;-58
2022/03/05 11:47:25;;;;;;;35.90;22.90;;;358.90;921.60;;;;;;5133833;27;20042;-57
2022/03/05 11:50:00;;;;;;;24.80;17.75;;;435.40;793.60;;;;;;5132777;27;20084;-57
2022/03/05 11:52:41;;;;;;;24.33;17.67;;;486.60;691.20;;;;;;5129831;27;20019;-57
2022/03/05 11:55:18;;;;;;;24.77;18.48;;;486.70;691.20;;;;;;5132441;27;20106;-57
2022/03/05 11:58:06;;;;;;;38.53;23.45;;;461.70;716.80;;;;;;5132256;27;20432;-57
2022/03/05 12:00:33;;;;;;;39.90;24.30;;;435.70;768.00;;;;;;5131537;27;20133;-57
2022/03/05 12:03:00;;;;;;;25.02;17.70;;;409.90;819.20;;;;;;5132850;27;20101;-57
2022/03/05 12:05:38;;;;;;;32.30;20.27;;;384.60;844.80;;;;;;5133017;27;20019;-57
2022/03/05 12:08:04;;;;;;;40.17;24.80;;;359.00;896.00;;;;;;5131490;27;20031;-57